Andreas, Pennsylvania
Current Conditions -  °F | °C
As of 9:55 AM on Wednesday 26 Nov 2014 (Local Time) from KHZL Reporting Station
Heavy Snow Heavy Snow  
Wind Chill: 32°   Ceiling: 400
Heat Index: 32°   Visibility: 0mi
Dew Point: 32°   Wind: 0mph
Humidity: 100%   Direction: NA
Pressure: 30.1"   Gusts: NA
Location:  40.75°N, 75.79°W
Report Text: KHZL 261455Z AUTO 00000KT M1/4SM +SN OVC004 00/00 A3010 RMK AO2
Loading
Personal Weather Stations






























Interactive Weather Map New forecast layout! Learn more

10-Day Weather Forecast

Advertisements
Track Severe Weather on mobile